createdAt,value
2018-02-02T00:00:00.839Z,37.62
2018-02-02T00:01:09.767Z,37.62
2018-02-02T00:02:18.684Z,37.62
2018-02-02T00:03:27.628Z,37.62
2018-02-02T00:04:36.565Z,37.54
2018-02-02T00:05:45.760Z,37.52
2018-02-02T00:06:54.427Z,37.72
2018-02-02T00:08:03.107Z,37.52
2018-02-02T00:09:12.284Z,37.62
2018-02-02T00:10:21.194Z,37.52
2018-02-02T00:11:29.878Z,37.52
2018-02-02T00:12:38.804Z,37.62
2018-02-02T00:13:47.998Z,37.62
2018-02-02T00:14:57.180Z,37.62
2018-02-02T00:16:06.361Z,37.64
2018-02-02T00:17:15.276Z,37.62
2018-02-02T00:18:24.223Z,37.62
2018-02-02T00:19:33.137Z,37.62
2018-02-02T00:20:42.053Z,37.62
2018-02-02T00:21:50.968Z,37.81
2018-02-02T00:23:00.690Z,37.52
2018-02-02T00:24:09.890Z,37.62
2018-02-02T00:25:18.802Z,37.52
2018-02-02T00:26:27.767Z,37.52
2018-02-02T00:27:36.519Z,37.52
2018-02-02T00:28:45.707Z,37.52
2018-02-02T00:29:54.697Z,37.62
2018-02-02T00:31:03.627Z,37.62
2018-02-02T00:32:12.309Z,37.81
2018-02-02T00:33:20.979Z,37.62
2018-02-02T00:34:30.196Z,37.91
2018-02-02T00:35:38.858Z,37.81
2018-02-02T00:36:47.772Z,37.52
2018-02-02T00:37:56.679Z,37.62
2018-02-02T00:39:06.118Z,37.81
2018-02-02T00:40:15.053Z,37.62
2018-02-02T00:41:23.726Z,37.52
2018-02-02T00:42:32.409Z,37.52
2018-02-02T00:43:41.375Z,37.62
2018-02-02T00:44:50.644Z,37.81
2018-02-02T00:45:59.604Z,37.81
2018-02-02T00:47:08.303Z,37.81
2018-02-02T00:48:17.531Z,37.72
2018-02-02T00:49:27.020Z,37.72
2018-02-02T00:50:36.019Z,37.91
2018-02-02T00:51:45.246Z,37.72
2018-02-02T00:52:54.207Z,37.81
2018-02-02T00:54:03.181Z,37.81
2018-02-02T00:55:12.406Z,37.91
2018-02-02T00:56:21.625Z,37.52
2018-02-02T00:57:30.578Z,37.52
2018-02-02T00:58:39.547Z,37.91
2018-02-02T00:59:49.019Z,37.81
2018-02-02T01:00:58.228Z,37.81
2018-02-02T01:02:07.174Z,37.52
2018-02-02T01:03:16.137Z,37.62
2018-02-02T01:04:25.607Z,37.52
2018-02-02T01:05:34.553Z,37.62
2018-02-02T01:06:43.747Z,37.62
2018-02-02T01:07:52.969Z,37.62
2018-02-02T01:09:01.701Z,37.52
2018-02-02T01:10:10.932Z,37.52
2018-02-02T01:11:20.142Z,37.62
2018-02-02T01:12:28.828Z,37.62
2018-02-02T01:13:37.791Z,37.62
2018-02-02T01:14:46.497Z,37.62
2018-02-02T01:15:55.981Z,37.62
2018-02-02T01:17:05.188Z,37.62
2018-02-02T01:18:14.689Z,37.52
2018-02-02T01:19:23.643Z,37.62
2018-02-02T01:20:32.603Z,37.72
2018-02-02T01:21:41.833Z,37.62
2018-02-02T01:22:50.790Z,37.81
2018-02-02T01:23:59.749Z,37.72
2018-02-02T01:25:08.720Z,37.72
2018-02-02T01:26:17.949Z,37.81
2018-02-02T01:27:27.166Z,37.81
2018-02-02T01:28:35.856Z,37.72
2018-02-02T01:29:44.568Z,37.72
2018-02-02T01:30:53.245Z,37.62
2018-02-02T01:32:01.955Z,37.72
2018-02-02T01:33:10.646Z,37.72
2018-02-02T01:34:19.616Z,37.62
2018-02-02T01:35:28.873Z,37.81
2018-02-02T01:36:38.360Z,37.81
2018-02-02T01:37:47.094Z,37.81
2018-02-02T01:38:56.316Z,37.62
2018-02-02T01:40:05.553Z,37.72
2018-02-02T01:41:14.510Z,37.62
2018-02-02T01:42:23.462Z,37.72
2018-02-02T01:43:32.424Z,37.72
2018-02-02T01:44:41.393Z,37.52
2018-02-02T01:45:51.167Z,37.52
2018-02-02T01:47:00.900Z,37.62
2018-02-02T01:48:09.872Z,37.52
2018-02-02T01:49:19.076Z,37.52
2018-02-02T01:50:28.044Z,37.52
2018-02-02T01:51:37.267Z,37.52
2018-02-02T01:52:46.233Z,37.43
2018-02-02T01:53:55.447Z,37.43
2018-02-02T01:55:04.143Z,37.62
2018-02-02T01:56:13.392Z,37.52
2018-02-02T01:57:22.091Z,37.52
2018-02-02T01:58:31.051Z,37.62
2018-02-02T01:59:40.581Z,37.62
2018-02-02T02:00:49.794Z,37.52
2018-02-02T02:01:58.763Z,37.43
2018-02-02T02:03:07.474Z,37.52
2018-02-02T02:04:16.436Z,37.52
2018-02-02T02:05:25.642Z,37.43
2018-02-02T02:06:34.606Z,37.52
2018-02-02T02:07:43.590Z,37.52
2018-02-02T02:08:52.527Z,37.52
2018-02-02T02:10:01.230Z,37.52
2018-02-02T02:11:10.187Z,37.43
2018-02-02T02:12:19.406Z,37.43
2018-02-02T02:13:28.344Z,37.52
2018-02-02T02:14:37.276Z,37.43
2018-02-02T02:15:46.314Z,37.43
2018-02-02T02:16:55.526Z,37.24
2018-02-02T02:18:04.478Z,37.43
2018-02-02T02:19:13.683Z,37.43
2018-02-02T02:20:22.633Z,37.43
2018-02-02T02:21:31.578Z,37.43
2018-02-02T02:22:40.523Z,37.43
2018-02-02T02:23:49.759Z,37.24
2018-02-02T02:24:58.467Z,37.34
2018-02-02T02:26:07.680Z,37.34
2018-02-02T02:27:16.376Z,37.24
2018-02-02T02:28:25.360Z,37.24
2018-02-02T02:29:34.575Z,37.14
2018-02-02T02:30:44.332Z,37.24
2018-02-02T02:31:53.282Z,37.24
2018-02-02T02:33:02.496Z,37.24
2018-02-02T02:34:11.987Z,37.24
2018-02-02T02:35:20.946Z,37.24
2018-02-02T02:36:29.630Z,37.24
2018-02-02T02:37:38.577Z,37.14
2018-02-02T02:38:47.806Z,37.24
2018-02-02T02:39:57.046Z,37.14
2018-02-02T02:41:06.035Z,37.24
2018-02-02T02:42:14.988Z,37.14
2018-02-02T02:43:23.957Z,37.24
2018-02-02T02:44:32.659Z,37.24
2018-02-02T02:45:41.432Z,37.04
2018-02-02T02:46:50.922Z,37.14
2018-02-02T02:47:59.871Z,37.14
2018-02-02T02:49:08.815Z,37.14
2018-02-02T02:50:17.535Z,37.14
2018-02-02T02:51:26.508Z,37.14
2018-02-02T02:52:35.471Z,37.14
2018-02-02T02:53:44.679Z,37.14
2018-02-02T02:54:53.369Z,37.14
2018-02-02T02:56:02.077Z,37.14
2018-02-02T02:57:11.623Z,37.14
2018-02-02T02:58:20.627Z,37.14
2018-02-02T02:59:29.853Z,37.14
2018-02-02T03:00:39.067Z,37.14
2018-02-02T03:01:47.797Z,37.14
2018-02-02T03:02:56.814Z,37.24
2018-02-02T03:04:06.292Z,37.04
2018-02-02T03:05:15.244Z,37.04
2018-02-02T03:06:23.953Z,36.85
2018-02-02T03:07:33.180Z,36.85
2018-02-02T03:08:42.395Z,36.95
2018-02-02T03:09:51.357Z,37.04
2018-02-02T03:11:00.314Z,37.14
2018-02-02T03:12:09.289Z,36.95
2018-02-02T03:13:18.349Z,36.85
2018-02-02T03:14:27.600Z,36.85
2018-02-02T03:15:36.829Z,36.85
2018-02-02T03:16:45.816Z,36.85
2018-02-02T03:17:55.039Z,36.85
2018-02-02T03:19:04.011Z,36.76
2018-02-02T03:20:12.976Z,36.95
2018-02-02T03:21:21.934Z,36.76
2018-02-02T03:22:30.902Z,36.85
2018-02-02T03:23:39.870Z,36.95
2018-02-02T03:24:48.818Z,36.95
2018-02-02T03:25:57.828Z,37.04
2018-02-02T03:27:06.521Z,37.04
2018-02-02T03:28:15.474Z,37.14
2018-02-02T03:29:24.968Z,37.24
2018-02-02T03:30:34.212Z,37.04
2018-02-02T03:31:43.422Z,37.04
2018-02-02T03:32:52.644Z,37.04
2018-02-02T03:34:01.624Z,37.04
2018-02-02T03:35:10.571Z,37.14
2018-02-02T03:36:19.530Z,37.04
2018-02-02T03:37:28.232Z,37.04
2018-02-02T03:38:37.438Z,37.14
2018-02-02T03:39:46.135Z,36.95
2018-02-02T03:40:55.128Z,37.04
2018-02-02T03:42:04.345Z,37.14
2018-02-02T03:43:13.291Z,37.14
2018-02-02T03:44:21.980Z,37.04
2018-02-02T03:45:31.474Z,37.04
2018-02-02T03:46:40.425Z,37.14
2018-02-02T03:47:49.374Z,36.95
2018-02-02T03:48:58.339Z,36.95
2018-02-02T03:50:07.031Z,36.95
2018-02-02T03:51:15.984Z,36.95
2018-02-02T03:52:24.946Z,36.85
2018-02-02T03:53:33.636Z,36.85
2018-02-02T03:54:42.592Z,36.95
2018-02-02T03:55:51.283Z,36.95
2018-02-02T03:57:00.222Z,36.85
2018-02-02T03:58:09.463Z,36.95
2018-02-02T03:59:18.938Z,37.04
2018-02-02T04:00:28.452Z,36.85
2018-02-02T04:01:37.514Z,37.04
2018-02-02T04:02:46.466Z,36.95
2018-02-02T04:03:55.437Z,36.95
2018-02-02T04:05:04.426Z,36.95
2018-02-02T04:06:13.398Z,36.85
2018-02-02T04:07:22.357Z,36.85
2018-02-02T04:08:31.056Z,36.95
2018-02-02T04:09:40.269Z,36.95
2018-02-02T04:10:49.476Z,36.95
2018-02-02T04:11:58.194Z,36.85
2018-02-02T04:13:06.927Z,36.95
2018-02-02T04:14:15.912Z,36.95
2018-02-02T04:15:25.161Z,36.95
2018-02-02T04:16:34.121Z,36.85
2018-02-02T04:17:43.681Z,36.85
2018-02-02T04:18:52.915Z,36.85
2018-02-02T04:20:02.453Z,36.85
2018-02-02T04:21:11.432Z,36.85
2018-02-02T04:22:20.158Z,36.85
2018-02-02T04:23:29.110Z,36.95
2018-02-02T04:24:38.066Z,36.85
2018-02-02T04:25:47.055Z,36.85
2018-02-02T04:26:56.065Z,36.85
2018-02-02T04:28:04.767Z,36.85
2018-02-02T04:29:13.981Z,36.85
2018-02-02T04:30:22.951Z,36.95
2018-02-02T04:31:31.639Z,36.85
2018-02-02T04:32:40.856Z,36.95
2018-02-02T04:33:49.565Z,36.85
2018-02-02T04:34:58.518Z,36.95
2018-02-02T04:36:07.252Z,36.85
2018-02-02T04:37:16.210Z,36.66
2018-02-02T04:38:25.431Z,36.85
2018-02-02T04:39:34.624Z,36.85
2018-02-02T04:40:43.839Z,36.76
2018-02-02T04:41:52.856Z,36.85
2018-02-02T04:43:01.567Z,36.76
2018-02-02T04:44:10.526Z,36.76
2018-02-02T04:45:19.737Z,36.66
2018-02-02T04:46:28.696Z,36.76
2018-02-02T04:47:38.184Z,36.66
2018-02-02T04:48:47.136Z,36.76
2018-02-02T04:49:56.622Z,36.66
2018-02-02T04:51:05.586Z,36.85
2018-02-02T04:52:14.817Z,36.76
2018-02-02T04:53:24.102Z,36.56
2018-02-02T04:54:32.840Z,36.45
2018-02-02T04:55:41.831Z,36.66
2018-02-02T04:56:50.558Z,36.85
2018-02-02T04:57:59.858Z,36.56
2018-02-02T04:59:08.570Z,36.66
2018-02-02T05:00:17.775Z,36.66
2018-02-02T05:01:27.064Z,36.76
2018-02-02T05:02:36.285Z,36.66
2018-02-02T05:03:45.256Z,36.66
2018-02-02T05:04:54.242Z,36.56
2018-02-02T05:06:03.724Z,36.56
2018-02-02T05:07:13.518Z,36.47
2018-02-02T05:08:22.491Z,36.47
2018-02-02T05:09:31.446Z,36.76
2018-02-02T05:10:40.734Z,36.45
2018-02-02T05:11:49.970Z,36.45
2018-02-02T05:12:59.731Z,36.47
2018-02-02T05:14:09.324Z,36.76
2018-02-02T05:15:18.280Z,36.56
2018-02-02T05:16:26.980Z,36.56
2018-02-02T05:17:36.233Z,36.74
2018-02-02T05:18:45.472Z,36.76
2018-02-02T05:19:54.700Z,36.56
2018-02-02T05:21:04.206Z,36.66
2018-02-02T05:22:13.205Z,36.85
2018-02-02T05:23:22.425Z,36.74
2018-02-02T05:24:31.117Z,36.74
2018-02-02T05:25:40.097Z,36.66
2018-02-02T05:26:49.074Z,36.56
2018-02-02T05:27:58.111Z,36.54
2018-02-02T05:29:07.083Z,36.64
2018-02-02T05:30:16.066Z,36.74
2018-02-02T05:31:25.078Z,36.64
2018-02-02T05:32:33.799Z,36.54
2018-02-02T05:33:43.099Z,36.66
2018-02-02T05:34:52.588Z,36.56
2018-02-02T05:36:01.841Z,36.76
2018-02-02T05:37:10.816Z,36.66
2018-02-02T05:38:20.623Z,36.66
2018-02-02T05:39:29.878Z,36.47
2018-02-02T05:40:38.923Z,36.18
2018-02-02T05:41:47.632Z,36.08
2018-02-02T05:42:56.850Z,36.18
2018-02-02T05:44:05.592Z,35.99
2018-02-02T05:45:14.554Z,35.89
2018-02-02T05:46:23.543Z,35.91
2018-02-02T05:47:32.528Z,35.79
2018-02-02T05:48:41.761Z,35.52
2018-02-02T05:49:50.726Z,35.33
2018-02-02T05:51:00.300Z,35.04
2018-02-02T05:52:09.282Z,35.14
2018-02-02T05:53:18.061Z,35.14
2018-02-02T05:54:27.047Z,34.84
2018-02-02T05:55:36.278Z,35.06
2018-02-02T05:56:45.288Z,35.16
2018-02-02T05:57:54.321Z,35.16
2018-02-02T05:59:03.851Z,34.77
2018-02-02T06:00:13.070Z,34.67
2018-02-02T06:01:22.651Z,34.67
2018-02-02T06:02:31.640Z,34.48
2018-02-02T06:03:41.210Z,34.29
2018-02-02T06:04:50.213Z,34.21
2018-02-02T06:05:59.153Z,34.5
2018-02-02T06:07:08.392Z,34.59
2018-02-02T06:08:18.416Z,34.4
2018-02-02T06:09:27.390Z,34.3
2018-02-02T06:10:36.415Z,34.4
2018-02-02T06:11:45.116Z,34.11
2018-02-02T06:12:53.814Z,34.21
2018-02-02T06:14:03.326Z,34.11
2018-02-02T06:15:12.308Z,34.22
2018-02-02T06:16:21.511Z,34.21
2018-02-02T06:17:30.502Z,34.32
2018-02-02T06:18:39.443Z,34.32
2018-02-02T06:19:48.716Z,33.94
2018-02-02T06:20:57.976Z,34.03
2018-02-02T06:22:06.696Z,34.03
2018-02-02T06:23:15.914Z,34.13
2018-02-02T06:24:24.906Z,34.13
2018-02-02T06:25:33.870Z,33.84
2018-02-02T06:26:42.588Z,33.94
2018-02-02T06:27:51.629Z,33.66
2018-02-02T06:29:00.564Z,33.66
2018-02-02T06:30:09.789Z,33.66
2018-02-02T06:31:19.301Z,33.47
2018-02-02T06:32:28.539Z,33.37
2018-02-02T06:33:37.777Z,33.57
2018-02-02T06:34:46.481Z,33.76
2018-02-02T06:35:55.446Z,33.57
2018-02-02T06:37:04.712Z,33.47
2018-02-02T06:38:13.442Z,33.28
2018-02-02T06:39:22.646Z,33
2018-02-02T06:40:31.364Z,33.39
2018-02-02T06:41:40.338Z,33.48
2018-02-02T06:42:49.421Z,33.29
2018-02-02T06:43:58.099Z,33.29
2018-02-02T06:45:06.821Z,33
2018-02-02T06:46:16.351Z,33.1
2018-02-02T06:47:25.068Z,33.1
2018-02-02T06:48:34.035Z,33.1
2018-02-02T06:52:15.877Z,33.29
2018-02-02T06:53:24.836Z,33.29
2018-02-02T06:54:33.782Z,33
2018-02-02T06:55:42.770Z,33.1
2018-02-02T06:56:51.747Z,33.1
2018-02-02T06:58:00.445Z,33.1
2018-02-02T06:59:09.125Z,33.12
2018-02-02T07:00:18.337Z,33.22
2018-02-02T07:01:27.320Z,33.31
2018-02-02T07:02:36.286Z,33.48
2018-02-02T07:03:45.514Z,33.31
2018-02-02T07:04:55.277Z,33.22
2018-02-02T07:06:05.037Z,33.02
2018-02-02T07:07:14.276Z,33.29
2018-02-02T07:08:23.495Z,33.4
2018-02-02T07:09:32.487Z,33.4
2018-02-02T07:10:41.707Z,33.39
2018-02-02T07:11:50.706Z,33.78
2018-02-02T07:12:59.402Z,33.39
2018-02-02T07:14:08.138Z,33.58
2018-02-02T07:15:17.128Z,33.78
2018-02-02T07:16:26.632Z,33.87
2018-02-02T07:17:35.849Z,33.87
2018-02-02T07:18:44.567Z,34.16
2018-02-02T07:19:53.551Z,34.06
2018-02-02T07:21:02.265Z,34.06
2018-02-02T07:22:10.973Z,34.06
2018-02-02T07:23:19.927Z,33.97
2018-02-02T07:24:28.633Z,34.36
2018-02-02T07:25:37.598Z,34.26
2018-02-02T07:26:46.824Z,34.24
2018-02-02T07:27:56.312Z,34.26
2018-02-02T07:29:05.113Z,34.45
2018-02-02T07:30:14.082Z,34.45
2018-02-02T07:31:23.339Z,34.44
2018-02-02T07:32:32.552Z,34.63
2018-02-02T07:33:41.836Z,34.24
2018-02-02T07:34:50.575Z,34.53
2018-02-02T07:35:59.556Z,34.44
2018-02-02T07:37:08.834Z,34.63
2018-02-02T07:38:18.074Z,34.63
2018-02-02T07:39:27.563Z,34.72
2018-02-02T07:40:36.790Z,35.21
2018-02-02T07:41:45.496Z,35.3
2018-02-02T07:42:54.980Z,35.3
2018-02-02T07:44:04.463Z,35.02
2018-02-02T07:45:13.440Z,35
2018-02-02T07:46:22.405Z,35
2018-02-02T07:47:31.373Z,35.19
2018-02-02T07:48:40.341Z,35.1
2018-02-02T07:49:49.027Z,35
2018-02-02T07:50:58.549Z,35.38
2018-02-02T07:52:08.026Z,35.28
2018-02-02T07:53:17.486Z,35.28
2018-02-02T07:54:26.182Z,35.58
2018-02-02T07:55:35.138Z,35.38
2018-02-02T07:56:44.892Z,35.48
2018-02-02T07:57:53.907Z,35.48
2018-02-02T07:59:03.396Z,35.38
2018-02-02T08:00:12.894Z,35.48
2018-02-02T08:01:22.438Z,35.58
2018-02-02T08:02:31.452Z,35.58
2018-02-02T08:03:40.715Z,35.46
2018-02-02T08:04:50.218Z,35.65
2018-02-02T08:05:59.175Z,35.77
2018-02-02T08:07:07.951Z,35.58
2018-02-02T08:08:17.218Z,35.75
2018-02-02T08:09:26.483Z,35.85
2018-02-02T08:10:36.005Z,35.75
2018-02-02T08:11:45.776Z,35.94
2018-02-02T08:12:55.011Z,35.94
2018-02-02T08:14:04.567Z,35.85
2018-02-02T08:15:13.540Z,35.75
2018-02-02T08:16:22.509Z,35.85
2018-02-02T08:17:31.568Z,35.85
2018-02-02T08:18:40.526Z,36.04
2018-02-02T08:19:49.492Z,35.94
2018-02-02T08:20:58.483Z,36.04
2018-02-02T08:22:07.447Z,35.85
2018-02-02T08:23:16.469Z,36.13
2018-02-02T08:24:25.692Z,36.23
2018-02-02T08:25:34.653Z,36.33
2018-02-02T08:26:43.649Z,36.13
2018-02-02T08:27:53.162Z,36.13
2018-02-02T08:29:02.434Z,36.13
2018-02-02T08:30:11.445Z,36.13
2018-02-02T08:31:20.718Z,36.13
2018-02-02T08:32:29.419Z,36.13
2018-02-02T08:33:38.364Z,36.33
2018-02-02T08:34:47.653Z,36.43
2018-02-02T08:35:56.377Z,36.33
2018-02-02T08:37:05.928Z,36.23
2018-02-02T08:38:14.623Z,36.31
2018-02-02T08:39:23.626Z,36.31
2018-02-02T08:40:32.596Z,36.21
2018-02-02T08:41:41.340Z,36.41
2018-02-02T08:42:50.355Z,36.41
2018-02-02T08:43:59.576Z,36.31
2018-02-02T08:45:09.292Z,36.41
2018-02-02T08:46:17.993Z,36.51
2018-02-02T08:47:27.748Z,36.31
2018-02-02T08:48:36.471Z,36.31
2018-02-02T08:49:45.557Z,36.41
2018-02-02T08:50:54.799Z,36.41
2018-02-02T08:52:04.317Z,36.41
2018-02-02T08:53:13.284Z,36.21
2018-02-02T08:54:22.021Z,36.51
2018-02-02T08:55:31.269Z,36.69
2018-02-02T08:56:40.241Z,36.6
2018-02-02T08:57:49.203Z,36.69
2018-02-02T08:58:58.522Z,36.6
2018-02-02T09:00:08.052Z,36.51
2018-02-02T09:01:17.272Z,36.51
2018-02-02T09:02:26.247Z,36.6
2018-02-02T09:03:35.525Z,36.51
2018-02-02T09:04:44.762Z,36.6
2018-02-02T09:05:54.062Z,36.6
2018-02-02T09:07:02.784Z,36.6
2018-02-02T09:08:11.781Z,36.6
2018-02-02T09:09:20.749Z,36.6
2018-02-02T09:10:29.702Z,36.6
2018-02-02T09:11:39.189Z,36.6
2018-02-02T09:12:47.922Z,36.69
2018-02-02T09:13:57.416Z,36.69
2018-02-02T09:15:06.107Z,36.6
2018-02-02T09:16:15.095Z,36.6
2018-02-02T09:17:23.845Z,36.6
2018-02-02T09:18:32.832Z,36.51
2018-02-02T09:19:42.086Z,36.69
2018-02-02T09:20:51.073Z,36.6
2018-02-02T09:22:00.830Z,36.69
2018-02-02T09:23:10.067Z,36.69
2018-02-02T09:24:19.293Z,36.6
2018-02-02T09:25:28.243Z,36.6
2018-02-02T09:26:37.209Z,36.69
2018-02-02T09:27:46.677Z,36.6
2018-02-02T09:28:55.384Z,36.6
2018-02-02T09:30:04.634Z,36.69
2018-02-02T09:31:13.590Z,36.69
2018-02-02T09:32:22.551Z,36.69
2018-02-02T09:33:31.780Z,36.6
2018-02-02T09:34:41.026Z,36.69
2018-02-02T09:35:49.732Z,36.6
2018-02-02T09:36:58.706Z,36.69
2018-02-02T09:38:07.955Z,36.69
2018-02-02T09:39:16.942Z,36.51
2018-02-02T09:40:26.257Z,36.6
2018-02-02T09:41:35.480Z,36.69
2018-02-02T09:42:44.706Z,36.69
2018-02-02T09:43:53.935Z,36.6
2018-02-02T09:45:02.625Z,36.69
2018-02-02T09:46:11.864Z,36.69
2018-02-02T09:47:20.837Z,36.69
2018-02-02T09:48:29.816Z,36.51
2018-02-02T09:49:38.543Z,36.69
2018-02-02T09:50:47.780Z,36.69
2018-02-02T09:51:56.757Z,36.69
2018-02-02T09:53:05.759Z,36.69
2018-02-02T09:54:14.528Z,36.6
2018-02-02T09:55:23.748Z,36.6
2018-02-02T09:56:32.985Z,36.69
2018-02-02T09:57:41.973Z,36.6
2018-02-02T09:58:51.220Z,36.6
2018-02-02T10:00:00.456Z,36.69
2018-02-02T10:01:09.696Z,36.6
2018-02-02T10:02:18.650Z,36.69
2018-02-02T10:03:27.630Z,36.6
2018-02-02T10:04:36.605Z,36.69
2018-02-02T10:05:45.637Z,36.6
2018-02-02T10:06:54.582Z,36.6
2018-02-02T10:08:03.807Z,36.6
2018-02-02T10:09:12.579Z,36.69
2018-02-02T10:10:21.592Z,36.68
2018-02-02T10:11:30.300Z,36.69
2018-02-02T10:12:39.285Z,36.79
2018-02-02T10:13:49.046Z,36.69
2018-02-02T10:14:58.055Z,36.79
2018-02-02T10:16:07.096Z,36.51
2018-02-02T10:17:16.585Z,36.79
2018-02-02T10:18:25.827Z,36.79
2018-02-02T10:19:35.314Z,36.51
2018-02-02T10:20:44.010Z,36.69
2018-02-02T10:21:53.244Z,36.69
2018-02-02T10:23:02.720Z,36.79
2018-02-02T10:24:11.671Z,36.79
2018-02-02T10:25:21.174Z,36.79
2018-02-02T10:26:30.399Z,36.51
2018-02-02T10:27:39.361Z,36.69
2018-02-02T10:28:48.869Z,36.79
2018-02-02T10:29:57.898Z,36.79
2018-02-02T10:31:07.378Z,36.6
2018-02-02T10:32:16.591Z,36.69
2018-02-02T10:33:25.838Z,36.69
2018-02-02T10:34:34.539Z,36.79
2018-02-02T10:35:43.526Z,36.69
2018-02-02T10:36:52.478Z,36.6
2018-02-02T10:38:01.183Z,36.58
2018-02-02T10:39:10.159Z,36.6
2018-02-02T10:40:18.871Z,36.6
2018-02-02T10:41:28.096Z,36.6
2018-02-02T10:42:36.787Z,36.69
2018-02-02T10:43:46.045Z,36.69
2018-02-02T10:44:55.788Z,36.69
2018-02-02T10:46:04.494Z,36.6
2018-02-02T10:47:13.447Z,36.51
2018-02-02T10:48:22.671Z,36.69
2018-02-02T10:49:31.643Z,36.6
2018-02-02T10:50:40.607Z,36.21
2018-02-02T10:51:50.077Z,36.6
2018-02-02T10:52:59.288Z,36.51
2018-02-02T10:54:08.504Z,36.6
2018-02-02T10:55:17.215Z,36.41
2018-02-02T10:56:26.195Z,36.69
2018-02-02T10:57:35.432Z,36.69
2018-02-02T10:58:44.393Z,36.51
2018-02-02T10:59:53.372Z,36.6
2018-02-02T11:01:03.106Z,36.69
2018-02-02T11:02:12.081Z,36.69
2018-02-02T11:03:21.556Z,36.6
2018-02-02T11:04:30.270Z,36.6
2018-02-02T11:05:39.320Z,36.69
2018-02-02T11:06:48.291Z,36.51
2018-02-02T11:07:57.250Z,36.6
2018-02-02T11:09:06.209Z,36.6
2018-02-02T11:10:15.185Z,36.58
2018-02-02T11:11:24.150Z,36.77
2018-02-02T11:12:33.427Z,36.69
2018-02-02T11:13:42.130Z,36.79
2018-02-02T11:14:51.353Z,36.79
2018-02-02T11:16:00.069Z,36.6
2018-02-02T11:17:09.294Z,36.6
2018-02-02T11:18:18.250Z,36.51
2018-02-02T11:19:27.242Z,36.58
2018-02-02T11:20:36.203Z,36.68
2018-02-02T11:21:45.185Z,36.6
2018-02-02T11:22:54.161Z,36.6
2018-02-02T11:24:03.148Z,36.58
2018-02-02T11:25:12.202Z,36.51
2018-02-02T11:26:21.154Z,36.6
2018-02-02T11:27:30.635Z,36.6
2018-02-02T11:28:39.850Z,36.49
2018-02-02T11:29:48.796Z,36.51
2018-02-02T11:30:58.011Z,36.6
2018-02-02T11:32:06.964Z,36.58
2018-02-02T11:33:15.713Z,36.69
2018-02-02T11:34:24.399Z,36.51
2018-02-02T11:35:33.911Z,36.6
2018-02-02T11:36:42.863Z,36.51
2018-02-02T11:37:52.585Z,36.41
2018-02-02T11:39:02.087Z,36.41
2018-02-02T11:40:10.786Z,36.41
2018-02-02T11:41:19.771Z,36.41
2018-02-02T11:42:28.974Z,36.41
2018-02-02T11:43:37.944Z,36.31
2018-02-02T11:44:46.931Z,36.11
2018-02-02T11:45:55.631Z,36.31
2018-02-02T11:47:05.407Z,36.31
2018-02-02T11:48:14.088Z,36.21
2018-02-02T11:49:22.792Z,36.21
2018-02-02T11:50:31.496Z,36.11
2018-02-02T11:51:40.500Z,36.21
2018-02-02T11:52:49.464Z,36.21
2018-02-02T11:53:58.405Z,36.11
2018-02-02T11:55:07.365Z,36.11
2018-02-02T11:56:16.616Z,36.11
2018-02-02T11:57:26.112Z,36.02
2018-02-02T11:58:35.322Z,36.11
2018-02-02T11:59:44.550Z,35.93
2018-02-02T12:00:53.754Z,36.11
2018-02-02T12:02:03.240Z,36.11
2018-02-02T12:03:11.947Z,36.21
2018-02-02T12:04:21.477Z,35.93
2018-02-02T12:05:30.442Z,35.93
2018-02-02T12:06:39.427Z,36.02
2018-02-02T12:07:48.378Z,36.02
2018-02-02T12:08:57.061Z,36.02
2018-02-02T12:10:06.018Z,36.21
2018-02-02T12:11:14.715Z,36.21
2018-02-02T12:12:24.032Z,36.11
2018-02-02T12:13:32.768Z,36.11
2018-02-02T12:14:41.717Z,36.11
2018-02-02T12:15:50.994Z,36.21
2018-02-02T12:16:59.697Z,36.11
2018-02-02T12:18:08.479Z,36.02
2018-02-02T12:19:17.708Z,36.21
2018-02-02T12:20:26.913Z,36.21
2018-02-02T12:21:36.164Z,36.21
2018-02-02T12:22:44.850Z,36.21
2018-02-02T12:23:54.102Z,36.31
2018-02-02T12:25:03.863Z,36.21
2018-02-02T12:26:13.334Z,36.11
2018-02-02T12:27:22.313Z,36.21
2018-02-02T12:28:31.572Z,36.31
2018-02-02T12:29:40.786Z,36.11
2018-02-02T12:30:50.269Z,36.31
2018-02-02T12:31:59.034Z,36.21
2018-02-02T12:33:08.084Z,36.11
2018-02-02T12:34:17.056Z,36.02
2018-02-02T12:35:26.006Z,36.02
2018-02-02T12:36:34.707Z,36.21
2018-02-02T12:37:43.938Z,36.11
2018-02-02T12:38:52.926Z,36.11
2018-02-02T12:40:01.652Z,36.31
2018-02-02T12:41:10.900Z,36.11
2018-02-02T12:42:19.908Z,36.31
2018-02-02T12:43:29.135Z,36.11
2018-02-02T12:44:37.823Z,36.21
2018-02-02T12:45:46.784Z,36.31
2018-02-02T12:46:55.509Z,36.31
2018-02-02T12:48:04.206Z,36.21
2018-02-02T12:49:13.764Z,36.21
2018-02-02T12:50:24.447Z,36.31
2018-02-02T12:51:31.790Z,36.31
2018-02-02T12:52:40.732Z,36.31
2018-02-02T12:53:49.696Z,36.11
2018-02-02T12:54:58.382Z,36.11
2018-02-02T12:56:07.597Z,36.41
2018-02-02T12:57:17.070Z,36.21
2018-02-02T12:58:25.796Z,36.41
2018-02-02T12:59:34.742Z,36.31
2018-02-02T13:00:44.007Z,36.31
2018-02-02T13:01:53.292Z,36.6
2018-02-02T13:03:02.234Z,36.6
2018-02-02T13:04:10.916Z,36.6
2018-02-02T13:05:20.670Z,36.6
2018-02-02T13:06:29.961Z,36.69
2018-02-02T13:07:39.011Z,36.6
2018-02-02T13:08:48.228Z,36.51
2018-02-02T13:09:57.191Z,36.89
2018-02-02T13:11:06.132Z,36.69
2018-02-02T13:12:14.875Z,36.51
2018-02-02T13:13:24.171Z,36.6
2018-02-02T13:14:32.927Z,36.69
2018-02-02T13:15:41.873Z,36.69
2018-02-02T13:16:50.892Z,36.79
2018-02-02T13:18:00.125Z,36.77
2018-02-02T13:19:09.749Z,36.58
2018-02-02T13:20:18.982Z,36.68
2018-02-02T13:21:28.006Z,36.68
2018-02-02T13:22:36.977Z,36.68
2018-02-02T13:23:45.929Z,36.58
2018-02-02T13:24:55.415Z,36.87
2018-02-02T13:26:04.916Z,36.77
2018-02-02T13:27:13.895Z,36.77
2018-02-02T13:28:22.915Z,36.77
2018-02-02T13:29:31.906Z,36.87
2018-02-02T13:30:40.874Z,36.87
2018-02-02T13:31:49.563Z,36.58
2018-02-02T13:32:58.781Z,36.77
2018-02-02T13:34:07.475Z,36.49
2018-02-02T13:35:16.423Z,36.77
2018-02-02T13:36:25.135Z,36.87
2018-02-02T13:37:34.647Z,36.58
2018-02-02T13:38:43.473Z,36.58
2018-02-02T13:39:52.187Z,36.68
2018-02-02T13:41:01.148Z,36.58
2018-02-02T13:42:10.662Z,36.49
2018-02-02T13:43:19.622Z,36.68
2018-02-02T13:44:28.870Z,36.68
2018-02-02T13:45:37.614Z,36.68
2018-02-02T13:46:46.578Z,36.77
2018-02-02T13:47:55.803Z,36.68
2018-02-02T13:49:04.747Z,36.68
2018-02-02T13:50:13.692Z,36.68
2018-02-02T13:51:22.398Z,36.49
2018-02-02T13:52:31.609Z,36.58
2018-02-02T13:53:40.812Z,36.58
2018-02-02T13:54:49.510Z,36.49
2018-02-02T13:55:58.461Z,36.58
2018-02-02T13:57:07.149Z,36.97
2018-02-02T13:58:16.084Z,36.77
2018-02-02T13:59:25.074Z,36.87
2018-02-02T14:00:34.038Z,36.87
2018-02-02T14:01:42.995Z,36.49
2018-02-02T14:02:51.696Z,36.49
2018-02-02T14:04:00.666Z,36.58
2018-02-02T14:05:09.631Z,36.58
2018-02-02T14:06:18.615Z,36.68
2018-02-02T14:07:27.894Z,36.49
2018-02-02T14:08:37.367Z,36.68
2018-02-02T14:09:46.061Z,36.87
2018-02-02T14:10:54.986Z,36.49
2018-02-02T14:12:04.195Z,36.87
2018-02-02T14:13:13.210Z,36.87
2018-02-02T14:14:22.184Z,36.58
2018-02-02T14:15:31.442Z,36.68
2018-02-02T14:16:40.974Z,36.68
2018-02-02T14:17:50.196Z,36.77
2018-02-02T14:18:59.156Z,36.58
2018-02-02T14:20:08.673Z,36.77
2018-02-02T14:21:17.892Z,36.87
2018-02-02T14:22:26.857Z,36.77
2018-02-02T14:23:36.179Z,36.58
2018-02-02T14:24:45.100Z,36.87
2018-02-02T14:25:54.598Z,36.49
2018-02-02T14:27:03.601Z,36.58
2018-02-02T14:28:12.860Z,36.77
2018-02-02T14:29:21.830Z,36.68
2018-02-02T14:30:30.533Z,36.68
2018-02-02T14:31:39.772Z,36.68
2018-02-02T14:32:48.470Z,36.87
2018-02-02T14:33:57.447Z,36.68
2018-02-02T14:35:06.422Z,36.77
2018-02-02T14:36:15.380Z,36.68
2018-02-02T14:37:24.848Z,36.87
2018-02-02T14:38:34.601Z,36.68
2018-02-02T14:39:43.814Z,36.58
2018-02-02T14:40:53.043Z,36.68
2018-02-02T14:42:02.272Z,36.77
2018-02-02T14:43:11.736Z,36.87
2018-02-02T14:44:20.980Z,36.97
2018-02-02T14:45:30.195Z,36.87
2018-02-02T14:46:38.904Z,36.97
2018-02-02T14:47:48.139Z,36.97
2018-02-02T14:48:57.386Z,36.87
2018-02-02T14:50:06.087Z,36.97
2018-02-02T14:51:14.899Z,36.87
2018-02-02T14:52:24.156Z,36.97
2018-02-02T14:53:33.639Z,37.06
2018-02-02T14:54:42.350Z,37.06